sensor_id;sensor_type;location;lat;lon;timestamp;P1;durP1;ratioP1;P2;durP2;ratioP2
45366;SDS011;31100;55.848;37.636;2023-04-28T00:01:35;21.02;;;12.68;;
45366;SDS011;31100;55.848;37.636;2023-04-28T00:04:00;21.38;;;12.07;;
45366;SDS011;31100;55.848;37.636;2023-04-28T00:06:26;17.55;;;12.25;;
45366;SDS011;31100;55.848;37.636;2023-04-28T00:08:52;19.30;;;13.15;;
45366;SDS011;31100;55.848;37.636;2023-04-28T00:11:17;19.13;;;12.60;;
45366;SDS011;31100;55.848;37.636;2023-04-28T00:13:43;19.65;;;12.80;;
45366;SDS011;31100;55.848;37.636;2023-04-28T00:16:08;23.23;;;13.07;;
45366;SDS011;31100;55.848;37.636;2023-04-28T00:18:34;18.65;;;13.00;;
45366;SDS011;31100;55.848;37.636;2023-04-28T00:20:59;19.10;;;13.52;;
45366;SDS011;31100;55.848;37.636;2023-04-28T00:23:25;20.52;;;13.10;;
45366;SDS011;31100;55.848;37.636;2023-04-28T00:25:51;20.35;;;13.20;;
45366;SDS011;31100;55.848;37.636;2023-04-28T00:28:18;22.15;;;13.68;;
45366;SDS011;31100;55.848;37.636;2023-04-28T00:30:43;16.50;;;12.13;;
45366;SDS011;31100;55.848;37.636;2023-04-28T00:33:09;17.13;;;13.55;;
45366;SDS011;31100;55.848;37.636;2023-04-28T00:35:34;22.70;;;13.70;;
45366;SDS011;31100;55.848;37.636;2023-04-28T00:38:00;20.00;;;13.35;;
45366;SDS011;31100;55.848;37.636;2023-04-28T00:40:38;21.48;;;13.95;;
45366;SDS011;31100;55.848;37.636;2023-04-28T00:43:04;21.70;;;13.63;;
45366;SDS011;31100;55.848;37.636;2023-04-28T00:45:30;17.13;;;13.10;;
45366;SDS011;31100;55.848;37.636;2023-04-28T00:47:56;20.50;;;13.85;;
45366;SDS011;31100;55.848;37.636;2023-04-28T00:50:24;17.13;;;14.52;;
45366;SDS011;31100;55.848;37.636;2023-04-28T00:52:50;20.60;;;13.55;;
45366;SDS011;31100;55.848;37.636;2023-04-28T00:55:16;18.92;;;13.55;;
45366;SDS011;31100;55.848;37.636;2023-04-28T00:57:42;20.88;;;13.88;;
45366;SDS011;31100;55.848;37.636;2023-04-28T01:00:08;18.63;;;13.55;;
45366;SDS011;31100;55.848;37.636;2023-04-28T01:02:36;21.85;;;14.45;;
45366;SDS011;31100;55.848;37.636;2023-04-28T01:05:03;21.77;;;14.45;;
45366;SDS011;31100;55.848;37.636;2023-04-28T01:07:29;20.35;;;13.52;;
45366;SDS011;31100;55.848;37.636;2023-04-28T01:09:54;22.50;;;14.30;;
45366;SDS011;31100;55.848;37.636;2023-04-28T01:12:20;22.25;;;14.23;;
45366;SDS011;31100;55.848;37.636;2023-04-28T01:14:46;18.13;;;13.38;;
45366;SDS011;31100;55.848;37.636;2023-04-28T01:17:12;20.67;;;14.45;;
45366;SDS011;31100;55.848;37.636;2023-04-28T01:19:38;22.38;;;14.30;;
45366;SDS011;31100;55.848;37.636;2023-04-28T01:22:04;22.17;;;14.52;;
45366;SDS011;31100;55.848;37.636;2023-04-28T01:24:30;21.92;;;14.18;;
45366;SDS011;31100;55.848;37.636;2023-04-28T01:26:56;18.35;;;14.57;;
45366;SDS011;31100;55.848;37.636;2023-04-28T01:29:21;19.80;;;14.75;;
45366;SDS011;31100;55.848;37.636;2023-04-28T01:31:46;21.75;;;14.27;;
45366;SDS011;31100;55.848;37.636;2023-04-28T01:34:12;23.02;;;14.52;;
45366;SDS011;31100;55.848;37.636;2023-04-28T01:36:37;25.33;;;14.65;;
45366;SDS011;31100;55.848;37.636;2023-04-28T01:39:03;20.05;;;14.25;;
45366;SDS011;31100;55.848;37.636;2023-04-28T01:41:29;17.05;;;13.38;;
45366;SDS011;31100;55.848;37.636;2023-04-28T01:43:54;26.67;;;15.23;;
45366;SDS011;31100;55.848;37.636;2023-04-28T01:46:20;22.67;;;14.63;;
45366;SDS011;31100;55.848;37.636;2023-04-28T01:48:45;16.00;;;13.95;;
45366;SDS011;31100;55.848;37.636;2023-04-28T01:51:11;23.40;;;14.95;;
45366;SDS011;31100;55.848;37.636;2023-04-28T01:53:37;22.45;;;15.38;;
45366;SDS011;31100;55.848;37.636;2023-04-28T01:56:02;22.55;;;14.98;;
45366;SDS011;31100;55.848;37.636;2023-04-28T01:58:28;22.30;;;15.20;;
45366;SDS011;31100;55.848;37.636;2023-04-28T02:00:53;24.00;;;14.90;;
45366;SDS011;31100;55.848;37.636;2023-04-28T02:03:19;17.80;;;14.27;;
45366;SDS011;31100;55.848;37.636;2023-04-28T02:05:45;22.05;;;15.05;;
45366;SDS011;31100;55.848;37.636;2023-04-28T02:08:14;20.08;;;14.88;;
45366;SDS011;31100;55.848;37.636;2023-04-28T02:10:42;22.27;;;14.85;;
45366;SDS011;31100;55.848;37.636;2023-04-28T02:13:08;21.77;;;15.23;;
45366;SDS011;31100;55.848;37.636;2023-04-28T02:15:38;22.95;;;15.18;;
45366;SDS011;31100;55.848;37.636;2023-04-28T02:18:04;17.65;;;13.73;;
45366;SDS011;31100;55.848;37.636;2023-04-28T02:20:30;17.98;;;14.25;;
45366;SDS011;31100;55.848;37.636;2023-04-28T02:22:55;24.73;;;14.60;;
45366;SDS011;31100;55.848;37.636;2023-04-28T02:25:21;18.77;;;13.95;;
45366;SDS011;31100;55.848;37.636;2023-04-28T02:27:46;17.60;;;14.38;;
45366;SDS011;31100;55.848;37.636;2023-04-28T02:30:12;19.45;;;14.35;;
45366;SDS011;31100;55.848;37.636;2023-04-28T02:32:37;18.80;;;13.18;;
45366;SDS011;31100;55.848;37.636;2023-04-28T02:35:03;19.58;;;13.85;;
45366;SDS011;31100;55.848;37.636;2023-04-28T02:37:29;21.10;;;14.68;;
45366;SDS011;31100;55.848;37.636;2023-04-28T02:39:54;20.85;;;14.15;;
45366;SDS011;31100;55.848;37.636;2023-04-28T02:42:20;21.23;;;14.38;;
45366;SDS011;31100;55.848;37.636;2023-04-28T02:44:45;16.67;;;13.88;;
45366;SDS011;31100;55.848;37.636;2023-04-28T02:47:11;21.17;;;13.95;;
45366;SDS011;31100;55.848;37.636;2023-04-28T02:49:36;20.38;;;13.75;;
45366;SDS011;31100;55.848;37.636;2023-04-28T02:52:02;16.92;;;13.07;;
45366;SDS011;31100;55.848;37.636;2023-04-28T02:54:27;19.13;;;13.68;;
45366;SDS011;31100;55.848;37.636;2023-04-28T02:56:53;19.60;;;13.90;;
45366;SDS011;31100;55.848;37.636;2023-04-28T02:59:19;21.77;;;14.75;;
45366;SDS011;31100;55.848;37.636;2023-04-28T03:01:45;15.70;;;13.98;;
45366;SDS011;31100;55.848;37.636;2023-04-28T03:04:11;19.13;;;13.95;;
45366;SDS011;31100;55.848;37.636;2023-04-28T03:06:37;16.23;;;14.45;;
45366;SDS011;31100;55.848;37.636;2023-04-28T03:09:03;20.27;;;14.25;;
45366;SDS011;31100;55.848;37.636;2023-04-28T03:11:28;18.77;;;14.10;;
45366;SDS011;31100;55.848;37.636;2023-04-28T03:13:53;18.67;;;15.10;;
45366;SDS011;31100;55.848;37.636;2023-04-28T03:16:19;21.70;;;14.15;;
45366;SDS011;31100;55.848;37.636;2023-04-28T03:18:44;21.75;;;14.30;;
45366;SDS011;31100;55.848;37.636;2023-04-28T03:21:10;20.77;;;14.25;;
45366;SDS011;31100;55.848;37.636;2023-04-28T03:23:35;20.23;;;13.88;;
45366;SDS011;31100;55.848;37.636;2023-04-28T03:26:01;25.55;;;14.70;;
45366;SDS011;31100;55.848;37.636;2023-04-28T03:28:26;22.95;;;15.65;;
45366;SDS011;31100;55.848;37.636;2023-04-28T03:30:52;18.85;;;14.38;;
45366;SDS011;31100;55.848;37.636;2023-04-28T03:33:17;20.15;;;14.48;;
45366;SDS011;31100;55.848;37.636;2023-04-28T03:35:43;18.17;;;13.65;;
45366;SDS011;31100;55.848;37.636;2023-04-28T03:38:08;17.65;;;14.07;;
45366;SDS011;31100;55.848;37.636;2023-04-28T03:40:34;24.63;;;14.52;;
45366;SDS011;31100;55.848;37.636;2023-04-28T03:42:59;20.65;;;13.65;;
45366;SDS011;31100;55.848;37.636;2023-04-28T03:45:25;18.58;;;14.45;;
45366;SDS011;31100;55.848;37.636;2023-04-28T03:47:51;17.95;;;14.70;;
45366;SDS011;31100;55.848;37.636;2023-04-28T03:50:16;19.58;;;14.57;;
45366;SDS011;31100;55.848;37.636;2023-04-28T03:52:42;19.60;;;14.48;;
45366;SDS011;31100;55.848;37.636;2023-04-28T03:55:08;20.90;;;15.55;;
45366;SDS011;31100;55.848;37.636;2023-04-28T03:57:34;20.45;;;13.80;;
45366;SDS011;31100;55.848;37.636;2023-04-28T04:00:00;20.10;;;14.00;;
45366;SDS011;31100;55.848;37.636;2023-04-28T04:02:25;22.33;;;14.43;;
45366;SDS011;31100;55.848;37.636;2023-04-28T04:04:51;18.45;;;13.35;;
45366;SDS011;31100;55.848;37.636;2023-04-28T04:07:16;21.83;;;14.10;;
45366;SDS011;31100;55.848;37.636;2023-04-28T04:09:42;19.85;;;13.15;;
45366;SDS011;31100;55.848;37.636;2023-04-28T04:12:07;20.02;;;14.15;;
45366;SDS011;31100;55.848;37.636;2023-04-28T04:14:33;18.00;;;13.57;;
45366;SDS011;31100;55.848;37.636;2023-04-28T04:16:58;18.90;;;13.65;;
45366;SDS011;31100;55.848;37.636;2023-04-28T04:19:24;19.95;;;13.68;;
45366;SDS011;31100;55.848;37.636;2023-04-28T04:21:51;19.70;;;13.70;;
45366;SDS011;31100;55.848;37.636;2023-04-28T04:24:16;19.38;;;13.10;;
45366;SDS011;31100;55.848;37.636;2023-04-28T04:26:42;20.02;;;13.73;;
45366;SDS011;31100;55.848;37.636;2023-04-28T04:29:07;19.17;;;13.25;;
45366;SDS011;31100;55.848;37.636;2023-04-28T04:31:33;21.17;;;13.38;;
45366;SDS011;31100;55.848;37.636;2023-04-28T04:33:59;17.77;;;12.73;;
45366;SDS011;31100;55.848;37.636;2023-04-28T04:36:24;18.95;;;13.57;;
45366;SDS011;31100;55.848;37.636;2023-04-28T04:38:50;22.40;;;13.60;;
45366;SDS011;31100;55.848;37.636;2023-04-28T04:41:16;17.75;;;13.02;;
45366;SDS011;31100;55.848;37.636;2023-04-28T04:43:46;18.45;;;12.45;;
45366;SDS011;31100;55.848;37.636;2023-04-28T04:46:11;19.80;;;12.25;;
45366;SDS011;31100;55.848;37.636;2023-04-28T04:48:37;16.00;;;13.15;;
45366;SDS011;31100;55.848;37.636;2023-04-28T04:51:03;16.98;;;12.05;;
45366;SDS011;31100;55.848;37.636;2023-04-28T04:53:28;16.75;;;12.75;;
45366;SDS011;31100;55.848;37.636;2023-04-28T04:55:54;17.58;;;12.48;;
45366;SDS011;31100;55.848;37.636;2023-04-28T04:58:19;19.90;;;12.60;;
45366;SDS011;31100;55.848;37.636;2023-04-28T05:00:45;19.92;;;11.88;;
45366;SDS011;31100;55.848;37.636;2023-04-28T05:03:10;16.33;;;12.50;;
45366;SDS011;31100;55.848;37.636;2023-04-28T05:05:36;16.38;;;12.60;;
45366;SDS011;31100;55.848;37.636;2023-04-28T05:08:01;17.42;;;12.27;;
45366;SDS011;31100;55.848;37.636;2023-04-28T05:10:27;16.65;;;10.65;;
45366;SDS011;31100;55.848;37.636;2023-04-28T05:12:53;15.93;;;11.52;;
45366;SDS011;31100;55.848;37.636;2023-04-28T05:15:18;14.93;;;10.40;;
45366;SDS011;31100;55.848;37.636;2023-04-28T05:17:44;20.83;;;10.65;;
45366;SDS011;31100;55.848;37.636;2023-04-28T05:20:10;14.32;;;10.45;;
45366;SDS011;31100;55.848;37.636;2023-04-28T05:22:35;16.20;;;10.73;;
45366;SDS011;31100;55.848;37.636;2023-04-28T05:25:01;12.60;;;9.35;;
45366;SDS011;31100;55.848;37.636;2023-04-28T05:27:26;16.98;;;9.88;;
45366;SDS011;31100;55.848;37.636;2023-04-28T05:29:52;14.00;;;9.13;;
45366;SDS011;31100;55.848;37.636;2023-04-28T05:32:17;14.55;;;9.35;;
45366;SDS011;31100;55.848;37.636;2023-04-28T05:34:43;12.98;;;9.68;;
45366;SDS011;31100;55.848;37.636;2023-04-28T05:37:08;14.30;;;9.18;;
45366;SDS011;31100;55.848;37.636;2023-04-28T05:39:34;12.55;;;9.65;;
45366;SDS011;31100;55.848;37.636;2023-04-28T05:41:59;15.00;;;9.75;;
45366;SDS011;31100;55.848;37.636;2023-04-28T05:44:24;14.90;;;10.45;;
45366;SDS011;31100;55.848;37.636;2023-04-28T05:46:50;15.75;;;10.48;;
45366;SDS011;31100;55.848;37.636;2023-04-28T05:49:15;19.23;;;10.25;;
45366;SDS011;31100;55.848;37.636;2023-04-28T05:51:41;16.50;;;9.88;;
45366;SDS011;31100;55.848;37.636;2023-04-28T05:54:07;13.90;;;10.23;;
45366;SDS011;31100;55.848;37.636;2023-04-28T05:56:33;14.43;;;9.98;;
45366;SDS011;31100;55.848;37.636;2023-04-28T05:58:58;16.70;;;9.65;;
45366;SDS011;31100;55.848;37.636;2023-04-28T06:01:28;15.10;;;10.60;;
45366;SDS011;31100;55.848;37.636;2023-04-28T06:03:53;20.30;;;10.63;;
45366;SDS011;31100;55.848;37.636;2023-04-28T06:06:21;20.08;;;11.07;;
45366;SDS011;31100;55.848;37.636;2023-04-28T06:08:47;16.17;;;10.15;;
45366;SDS011;31100;55.848;37.636;2023-04-28T06:11:12;9.85;;;7.38;;
45366;SDS011;31100;55.848;37.636;2023-04-28T06:13:38;16.63;;;8.98;;
45366;SDS011;31100;55.848;37.636;2023-04-28T06:16:03;16.83;;;8.18;;
45366;SDS011;31100;55.848;37.636;2023-04-28T06:18:29;17.95;;;9.15;;
45366;SDS011;31100;55.848;37.636;2023-04-28T06:20:58;16.92;;;10.10;;
45366;SDS011;31100;55.848;37.636;2023-04-28T06:23:23;18.17;;;8.52;;
45366;SDS011;31100;55.848;37.636;2023-04-28T06:25:49;17.70;;;8.77;;
45366;SDS011;31100;55.848;37.636;2023-04-28T06:28:14;15.65;;;9.55;;
45366;SDS011;31100;55.848;37.636;2023-04-28T06:30:40;15.88;;;9.45;;
45366;SDS011;31100;55.848;37.636;2023-04-28T06:33:05;14.73;;;9.13;;
45366;SDS011;31100;55.848;37.636;2023-04-28T06:35:31;13.20;;;9.23;;
45366;SDS011;31100;55.848;37.636;2023-04-28T06:38:00;21.52;;;9.93;;
45366;SDS011;31100;55.848;37.636;2023-04-28T06:40:27;14.98;;;9.85;;
45366;SDS011;31100;55.848;37.636;2023-04-28T06:42:53;20.08;;;10.82;;
45366;SDS011;31100;55.848;37.636;2023-04-28T06:45:18;16.52;;;10.30;;
45366;SDS011;31100;55.848;37.636;2023-04-28T06:47:44;16.17;;;8.93;;
45366;SDS011;31100;55.848;37.636;2023-04-28T06:50:09;19.52;;;8.57;;
45366;SDS011;31100;55.848;37.636;2023-04-28T06:52:35;20.58;;;9.57;;
45366;SDS011;31100;55.848;37.636;2023-04-28T06:55:02;19.38;;;9.00;;
45366;SDS011;31100;55.848;37.636;2023-04-28T06:57:29;14.13;;;8.10;;
45366;SDS011;31100;55.848;37.636;2023-04-28T06:59:54;19.83;;;8.55;;
45366;SDS011;31100;55.848;37.636;2023-04-28T07:02:20;12.45;;;7.88;;
45366;SDS011;31100;55.848;37.636;2023-04-28T07:04:45;13.93;;;8.20;;
45366;SDS011;31100;55.848;37.636;2023-04-28T07:07:11;12.13;;;8.27;;
45366;SDS011;31100;55.848;37.636;2023-04-28T07:09:37;16.80;;;8.50;;
45366;SDS011;31100;55.848;37.636;2023-04-28T07:12:02;11.00;;;7.82;;
45366;SDS011;31100;55.848;37.636;2023-04-28T07:14:28;12.18;;;7.53;;
45366;SDS011;31100;55.848;37.636;2023-04-28T07:16:54;10.07;;;7.13;;
45366;SDS011;31100;55.848;37.636;2023-04-28T07:19:20;9.15;;;6.47;;
45366;SDS011;31100;55.848;37.636;2023-04-28T07:21:45;9.05;;;6.35;;
45366;SDS011;31100;55.848;37.636;2023-04-28T07:24:10;13.18;;;6.78;;
45366;SDS011;31100;55.848;37.636;2023-04-28T07:26:36;13.50;;;6.55;;
45366;SDS011;31100;55.848;37.636;2023-04-28T07:29:01;15.95;;;7.30;;
45366;SDS011;31100;55.848;37.636;2023-04-28T07:31:27;11.38;;;6.82;;
45366;SDS011;31100;55.848;37.636;2023-04-28T07:33:53;8.50;;;6.20;;
45366;SDS011;31100;55.848;37.636;2023-04-28T07:36:19;11.40;;;6.05;;
45366;SDS011;31100;55.848;37.636;2023-04-28T07:38:44;9.77;;;6.00;;
45366;SDS011;31100;55.848;37.636;2023-04-28T07:41:10;13.02;;;6.88;;
45366;SDS011;31100;55.848;37.636;2023-04-28T07:43:36;10.50;;;6.30;;
45366;SDS011;31100;55.848;37.636;2023-04-28T07:46:08;13.98;;;6.82;;
45366;SDS011;31100;55.848;37.636;2023-04-28T07:48:41;12.45;;;6.22;;
45366;SDS011;31100;55.848;37.636;2023-04-28T07:51:09;15.60;;;6.65;;
45366;SDS011;31100;55.848;37.636;2023-04-28T07:53:35;9.23;;;6.18;;
45366;SDS011;31100;55.848;37.636;2023-04-28T07:56:00;15.13;;;6.45;;
45366;SDS011;31100;55.848;37.636;2023-04-28T07:58:26;9.43;;;6.00;;
45366;SDS011;31100;55.848;37.636;2023-04-28T08:01:00;12.07;;;6.45;;
45366;SDS011;31100;55.848;37.636;2023-04-28T08:03:26;13.18;;;7.63;;
45366;SDS011;31100;55.848;37.636;2023-04-28T08:05:54;12.30;;;7.43;;
45366;SDS011;31100;55.848;37.636;2023-04-28T08:08:20;9.20;;;7.40;;
45366;SDS011;31100;55.848;37.636;2023-04-28T08:10:45;13.80;;;8.93;;
45366;SDS011;31100;55.848;37.636;2023-04-28T08:13:11;11.38;;;9.00;;
45366;SDS011;31100;55.848;37.636;2023-04-28T08:15:36;12.77;;;8.43;;
45366;SDS011;31100;55.848;37.636;2023-04-28T08:18:02;13.27;;;8.25;;
45366;SDS011;31100;55.848;37.636;2023-04-28T08:20:28;11.85;;;8.30;;
45366;SDS011;31100;55.848;37.636;2023-04-28T08:22:54;13.60;;;8.60;;
45366;SDS011;31100;55.848;37.636;2023-04-28T08:25:19;11.50;;;8.80;;
45366;SDS011;31100;55.848;37.636;2023-04-28T08:27:45;13.40;;;9.32;;
45366;SDS011;31100;55.848;37.636;2023-04-28T08:30:11;11.93;;;9.05;;
45366;SDS011;31100;55.848;37.636;2023-04-28T08:32:36;12.20;;;8.32;;
45366;SDS011;31100;55.848;37.636;2023-04-28T08:35:02;12.88;;;9.68;;
45366;SDS011;31100;55.848;37.636;2023-04-28T08:37:28;11.18;;;8.63;;
45366;SDS011;31100;55.848;37.636;2023-04-28T08:39:54;12.95;;;8.35;;
45366;SDS011;31100;55.848;37.636;2023-04-28T08:42:29;14.57;;;9.82;;
45366;SDS011;31100;55.848;37.636;2023-04-28T08:44:56;16.60;;;9.57;;
45366;SDS011;31100;55.848;37.636;2023-04-28T08:47:23;13.52;;;9.77;;
45366;SDS011;31100;55.848;37.636;2023-04-28T08:49:59;14.88;;;10.70;;
45366;SDS011;31100;55.848;37.636;2023-04-28T08:52:27;11.45;;;10.25;;
45366;SDS011;31100;55.848;37.636;2023-04-28T08:54:54;10.73;;;9.63;;
45366;SDS011;31100;55.848;37.636;2023-04-28T08:57:20;15.00;;;11.32;;
45366;SDS011;31100;55.848;37.636;2023-04-28T08:59:46;14.75;;;11.73;;
45366;SDS011;31100;55.848;37.636;2023-04-28T09:02:11;12.55;;;11.23;;
45366;SDS011;31100;55.848;37.636;2023-04-28T09:04:37;13.02;;;10.23;;
45366;SDS011;31100;55.848;37.636;2023-04-28T09:07:02;14.13;;;10.52;;
45366;SDS011;31100;55.848;37.636;2023-04-28T09:09:28;13.88;;;11.60;;
45366;SDS011;31100;55.848;37.636;2023-04-28T09:11:56;14.32;;;11.00;;
45366;SDS011;31100;55.848;37.636;2023-04-28T09:14:24;14.00;;;11.43;;
45366;SDS011;31100;55.848;37.636;2023-04-28T09:16:53;17.75;;;11.68;;
45366;SDS011;31100;55.848;37.636;2023-04-28T09:19:19;15.43;;;11.23;;
45366;SDS011;31100;55.848;37.636;2023-04-28T09:21:45;15.77;;;11.90;;
45366;SDS011;31100;55.848;37.636;2023-04-28T09:24:34;14.13;;;11.00;;
45366;SDS011;31100;55.848;37.636;2023-04-28T09:27:08;13.55;;;11.60;;
45366;SDS011;31100;55.848;37.636;2023-04-28T09:29:51;16.50;;;12.10;;
45366;SDS011;31100;55.848;37.636;2023-04-28T09:32:18;13.55;;;12.15;;
45366;SDS011;31100;55.848;37.636;2023-04-28T09:34:49;14.73;;;13.20;;
45366;SDS011;31100;55.848;37.636;2023-04-28T09:37:16;14.43;;;11.85;;
45366;SDS011;31100;55.848;37.636;2023-04-28T09:39:47;17.42;;;13.10;;
45366;SDS011;31100;55.848;37.636;2023-04-28T09:45:05;16.65;;;11.73;;
45366;SDS011;31100;55.848;37.636;2023-04-28T09:47:36;12.77;;;10.90;;
45366;SDS011;31100;55.848;37.636;2023-04-28T09:50:03;12.70;;;11.15;;
45366;SDS011;31100;55.848;37.636;2023-04-28T09:52:34;14.82;;;10.98;;
45366;SDS011;31100;55.848;37.636;2023-04-28T09:55:03;12.95;;;10.30;;
45366;SDS011;31100;55.848;37.636;2023-04-28T09:57:30;13.05;;;10.40;;
45366;SDS011;31100;55.848;37.636;2023-04-28T09:59:57;12.07;;;10.32;;
45366;SDS011;31100;55.848;37.636;2023-04-28T10:02:22;12.05;;;10.85;;
45366;SDS011;31100;55.848;37.636;2023-04-28T10:04:48;13.45;;;10.15;;
45366;SDS011;31100;55.848;37.636;2023-04-28T10:07:15;13.55;;;11.38;;
45366;SDS011;31100;55.848;37.636;2023-04-28T10:09:42;12.30;;;11.10;;
45366;SDS011;31100;55.848;37.636;2023-04-28T10:12:11;12.15;;;10.40;;
45366;SDS011;31100;55.848;37.636;2023-04-28T10:14:44;12.52;;;11.23;;
45366;SDS011;31100;55.848;37.636;2023-04-28T10:17:12;14.98;;;13.15;;
45366;SDS011;31100;55.848;37.636;2023-04-28T10:19:40;17.00;;;12.98;;
45366;SDS011;31100;55.848;37.636;2023-04-28T10:27:50;12.82;;;10.45;;
45366;SDS011;31100;55.848;37.636;2023-04-28T10:30:17;15.35;;;12.18;;
45366;SDS011;31100;55.848;37.636;2023-04-28T10:33:22;13.15;;;11.15;;
45366;SDS011;31100;55.848;37.636;2023-04-28T10:35:46;13.18;;;11.07;;
45366;SDS011;31100;55.848;37.636;2023-04-28T10:38:13;14.20;;;10.95;;
45366;SDS011;31100;55.848;37.636;2023-04-28T10:40:43;15.43;;;10.88;;
45366;SDS011;31100;55.848;37.636;2023-04-28T10:43:12;13.38;;;11.05;;
45366;SDS011;31100;55.848;37.636;2023-04-28T10:48:16;14.90;;;12.80;;
45366;SDS011;31100;55.848;37.636;2023-04-28T10:51:45;21.08;;;12.07;;
45366;SDS011;31100;55.848;37.636;2023-04-28T10:58:34;16.35;;;12.02;;
45366;SDS011;31100;55.848;37.636;2023-04-28T11:03:59;9.57;;;8.45;;
45366;SDS011;31100;55.848;37.636;2023-04-28T11:06:38;12.18;;;9.02;;
45366;SDS011;31100;55.848;37.636;2023-04-28T11:11:36;11.32;;;10.20;;
45366;SDS011;31100;55.848;37.636;2023-04-28T11:19:35;13.13;;;10.30;;
45366;SDS011;31100;55.848;37.636;2023-04-28T11:22:03;12.27;;;10.20;;
45366;SDS011;31100;55.848;37.636;2023-04-28T11:24:38;12.25;;;10.35;;
45366;SDS011;31100;55.848;37.636;2023-04-28T11:27:04;11.43;;;10.20;;
45366;SDS011;31100;55.848;37.636;2023-04-28T11:29:36;13.68;;;10.88;;
45366;SDS011;31100;55.848;37.636;2023-04-28T11:32:03;14.52;;;12.20;;
45366;SDS011;31100;55.848;37.636;2023-04-28T11:34:33;15.80;;;13.20;;
45366;SDS011;31100;55.848;37.636;2023-04-28T11:37:00;15.65;;;12.85;;
45366;SDS011;31100;55.848;37.636;2023-04-28T11:39:29;15.43;;;12.75;;
45366;SDS011;31100;55.848;37.636;2023-04-28T11:41:56;16.92;;;12.88;;
45366;SDS011;31100;55.848;37.636;2023-04-28T11:44:24;15.10;;;13.50;;
45366;SDS011;31100;55.848;37.636;2023-04-28T11:49:24;17.63;;;14.93;;
45366;SDS011;31100;55.848;37.636;2023-04-28T11:51:54;17.38;;;14.40;;
45366;SDS011;31100;55.848;37.636;2023-04-28T11:54:27;15.95;;;13.57;;
45366;SDS011;31100;55.848;37.636;2023-04-28T11:56:53;20.38;;;14.30;;
45366;SDS011;31100;55.848;37.636;2023-04-28T11:59:26;17.52;;;14.82;;
45366;SDS011;31100;55.848;37.636;2023-04-28T12:01:54;17.95;;;13.77;;
45366;SDS011;31100;55.848;37.636;2023-04-28T12:04:35;17.83;;;13.80;;
45366;SDS011;31100;55.848;37.636;2023-04-28T12:07:17;17.02;;;13.60;;
45366;SDS011;31100;55.848;37.636;2023-04-28T12:09:47;15.15;;;13.35;;
45366;SDS011;31100;55.848;37.636;2023-04-28T12:12:33;15.60;;;13.93;;
45366;SDS011;31100;55.848;37.636;2023-04-28T12:15:05;19.50;;;14.68;;
45366;SDS011;31100;55.848;37.636;2023-04-28T12:17:37;15.65;;;14.00;;
45366;SDS011;31100;55.848;37.636;2023-04-28T12:20:06;17.80;;;15.20;;
45366;SDS011;31100;55.848;37.636;2023-04-28T12:22:47;18.13;;;15.73;;
45366;SDS011;31100;55.848;37.636;2023-04-28T12:25:15;21.58;;;17.05;;
45366;SDS011;31100;55.848;37.636;2023-04-28T12:27:57;17.23;;;15.18;;
45366;SDS011;31100;55.848;37.636;2023-04-28T12:30:23;18.65;;;16.25;;
45366;SDS011;31100;55.848;37.636;2023-04-28T12:32:50;17.05;;;14.15;;
45366;SDS011;31100;55.848;37.636;2023-04-28T12:35:15;18.30;;;13.02;;
45366;SDS011;31100;55.848;37.636;2023-04-28T12:37:41;15.30;;;12.18;;
45366;SDS011;31100;55.848;37.636;2023-04-28T12:40:07;14.13;;;11.98;;
45366;SDS011;31100;55.848;37.636;2023-04-28T12:42:34;14.35;;;10.75;;
45366;SDS011;31100;55.848;37.636;2023-04-28T12:44:59;12.38;;;11.07;;
45366;SDS011;31100;55.848;37.636;2023-04-28T12:47:25;13.90;;;11.52;;
45366;SDS011;31100;55.848;37.636;2023-04-28T12:49:51;14.77;;;12.18;;
45366;SDS011;31100;55.848;37.636;2023-04-28T12:52:17;15.25;;;12.48;;
45366;SDS011;31100;55.848;37.636;2023-04-28T12:54:43;15.93;;;13.30;;
45366;SDS011;31100;55.848;37.636;2023-04-28T12:57:20;15.25;;;11.88;;
45366;SDS011;31100;55.848;37.636;2023-04-28T12:59:45;15.93;;;12.07;;
45366;SDS011;31100;55.848;37.636;2023-04-28T13:02:16;16.13;;;11.38;;
45366;SDS011;31100;55.848;37.636;2023-04-28T13:04:42;21.05;;;17.50;;
45366;SDS011;31100;55.848;37.636;2023-04-28T13:07:09;14.98;;;12.80;;
45366;SDS011;31100;55.848;37.636;2023-04-28T13:09:35;12.82;;;10.70;;
45366;SDS011;31100;55.848;37.636;2023-04-28T13:12:01;13.63;;;11.95;;
45366;SDS011;31100;55.848;37.636;2023-04-28T13:14:27;14.32;;;10.07;;
45366;SDS011;31100;55.848;37.636;2023-04-28T13:16:53;14.60;;;11.80;;
45366;SDS011;31100;55.848;37.636;2023-04-28T13:19:18;11.95;;;10.00;;
45366;SDS011;31100;55.848;37.636;2023-04-28T13:21:44;11.40;;;9.23;;
45366;SDS011;31100;55.848;37.636;2023-04-28T13:24:11;9.90;;;8.50;;
45366;SDS011;31100;55.848;37.636;2023-04-28T13:26:37;10.20;;;8.80;;
45366;SDS011;31100;55.848;37.636;2023-04-28T13:29:03;10.38;;;7.80;;
45366;SDS011;31100;55.848;37.636;2023-04-28T13:31:29;9.57;;;6.90;;
45366;SDS011;31100;55.848;37.636;2023-04-28T13:33:56;9.07;;;6.13;;
45366;SDS011;31100;55.848;37.636;2023-04-28T13:36:23;6.70;;;5.85;;
45366;SDS011;31100;55.848;37.636;2023-04-28T13:38:49;8.40;;;5.75;;
45366;SDS011;31100;55.848;37.636;2023-04-28T13:41:15;7.32;;;5.65;;
45366;SDS011;31100;55.848;37.636;2023-04-28T13:43:44;8.15;;;5.50;;
45366;SDS011;31100;55.848;37.636;2023-04-28T13:46:10;7.25;;;5.40;;
45366;SDS011;31100;55.848;37.636;2023-04-28T13:48:36;5.95;;;4.93;;
45366;SDS011;31100;55.848;37.636;2023-04-28T13:51:02;6.78;;;5.10;;
45366;SDS011;31100;55.848;37.636;2023-04-28T13:53:29;8.25;;;5.70;;
45366;SDS011;31100;55.848;37.636;2023-04-28T13:55:55;6.88;;;5.15;;
45366;SDS011;31100;55.848;37.636;2023-04-28T13:58:25;7.53;;;5.95;;
45366;SDS011;31100;55.848;37.636;2023-04-28T14:00:51;7.95;;;5.60;;
45366;SDS011;31100;55.848;37.636;2023-04-28T14:03:18;7.60;;;5.32;;
45366;SDS011;31100;55.848;37.636;2023-04-28T14:05:46;7.70;;;5.32;;
45366;SDS011;31100;55.848;37.636;2023-04-28T14:08:13;7.00;;;5.28;;
45366;SDS011;31100;55.848;37.636;2023-04-28T14:10:42;7.20;;;5.28;;
45366;SDS011;31100;55.848;37.636;2023-04-28T14:13:07;8.20;;;5.38;;
45366;SDS011;31100;55.848;37.636;2023-04-28T14:15:33;7.15;;;4.80;;
45366;SDS011;31100;55.848;37.636;2023-04-28T14:17:59;8.00;;;5.05;;
45366;SDS011;31100;55.848;37.636;2023-04-28T14:20:25;7.95;;;4.70;;
45366;SDS011;31100;55.848;37.636;2023-04-28T14:22:51;8.63;;;4.85;;
45366;SDS011;31100;55.848;37.636;2023-04-28T14:25:16;7.03;;;4.22;;
45366;SDS011;31100;55.848;37.636;2023-04-28T14:27:42;9.73;;;5.00;;
45366;SDS011;31100;55.848;37.636;2023-04-28T14:30:08;9.60;;;4.90;;
45366;SDS011;31100;55.848;37.636;2023-04-28T14:32:35;6.78;;;4.38;;
45366;SDS011;31100;55.848;37.636;2023-04-28T14:35:01;7.47;;;4.72;;
45366;SDS011;31100;55.848;37.636;2023-04-28T14:37:29;6.30;;;4.18;;
45366;SDS011;31100;55.848;37.636;2023-04-28T14:39:55;5.30;;;3.70;;
45366;SDS011;31100;55.848;37.636;2023-04-28T14:42:20;4.90;;;2.83;;